BAW65J EGCC-EGLL
Flight info
| Callsign | BAW65J |
|---|---|
| Flight time | 0h 32m |
| Altitude | 19000 |
| Route | LISTO2S LISTO L612 HON HON2H |
| Aircraft | A20N/M-SDE2E3FGHIRWXY/LB1 |
Departure
| Time | 2026-05-05 20:08 |
|---|---|
| Airport | Manchester Airport (EGCC) |
Arrival
| Time | 2026-05-05 20:40 |
|---|---|
| Airport | London Heathrow Airport (EGLL) |
| Time | Latitude | Longitude | Altitude | Speed | Heading |
|---|---|---|---|---|---|
| 2026-05-05 19:41 | 53.35840 | -2.27400 | 259 ft | 0 kts | 285° |
| 2026-05-05 19:49 | 53.35840 | -2.27398 | 259 ft | 1 kts | 285° |
| 2026-05-05 19:49 | 53.35836 | -2.27373 | 259 ft | 2 kts | 285° |
| 2026-05-05 19:49 | 53.35833 | -2.27353 | 259 ft | 0 kts | 285° |
| 2026-05-05 19:50 | 53.35832 | -2.27334 | 259 ft | 2 kts | 244° |
| 2026-05-05 19:50 | 53.35843 | -2.27317 | 259 ft | 1 kts | 191° |
| 2026-05-05 19:50 | 53.35850 | -2.27317 | 259 ft | 1 kts | 175° |
| 2026-05-05 19:50 | 53.35853 | -2.27317 | 259 ft | 0 kts | 179° |
| 2026-05-05 19:53 | 53.35799 | -2.27327 | 259 ft | 13 kts | 200° |
| 2026-05-05 19:53 | 53.35741 | -2.27418 | 259 ft | 6 kts | 231° |
| 2026-05-05 19:53 | 53.35739 | -2.27422 | 259 ft | 0 kts | 231° |
| 2026-05-05 19:55 | 53.35738 | -2.27425 | 259 ft | 3 kts | 231° |
| 2026-05-05 19:55 | 53.35694 | -2.27517 | 259 ft | 11 kts | 231° |
| 2026-05-05 19:55 | 53.35637 | -2.27626 | 259 ft | 13 kts | 226° |
| 2026-05-05 19:55 | 53.35574 | -2.27733 | 259 ft | 17 kts | 225° |
| 2026-05-05 19:56 | 53.35472 | -2.27897 | 259 ft | 20 kts | 224° |
| 2026-05-05 19:56 | 53.35371 | -2.28060 | 259 ft | 19 kts | 224° |
| 2026-05-05 19:56 | 53.35273 | -2.28223 | 259 ft | 19 kts | 227° |
| 2026-05-05 19:56 | 53.35186 | -2.28396 | 259 ft | 19 kts | 230° |
| 2026-05-05 19:57 | 53.35102 | -2.28569 | 259 ft | 19 kts | 231° |
| 2026-05-05 19:57 | 53.35013 | -2.28747 | 259 ft | 23 kts | 228° |
| 2026-05-05 19:57 | 53.34896 | -2.28947 | 259 ft | 22 kts | 225° |
| 2026-05-05 19:57 | 53.34803 | -2.29115 | 259 ft | 15 kts | 230° |
| 2026-05-05 19:58 | 53.34753 | -2.29222 | 259 ft | 2 kts | 232° |
| 2026-05-05 19:58 | 53.34753 | -2.29223 | 259 ft | 0 kts | 232° |
| 2026-05-05 20:04 | 53.34729 | -2.29269 | 259 ft | 13 kts | 226° |
| 2026-05-05 20:05 | 53.34684 | -2.29320 | 259 ft | 0 kts | 205° |
| 2026-05-05 20:06 | 53.34590 | -2.29329 | 259 ft | 19 kts | 164° |
| 2026-05-05 20:06 | 53.34565 | -2.29168 | 259 ft | 12 kts | 50° |
| 2026-05-05 20:07 | 53.34576 | -2.29144 | 259 ft | 1 kts | 51° |
| 2026-05-05 20:07 | 53.34586 | -2.29125 | 259 ft | 6 kts | 51° |
| 2026-05-05 20:07 | 53.34809 | -2.28658 | 259 ft | 93 kts | 50° |
| 2026-05-05 20:07 | 53.35371 | -2.27494 | 271 ft | 158 kts | 52° |
| 2026-05-05 20:08 | 53.36073 | -2.26020 | 867 ft | 167 kts | 51° |
| 2026-05-05 20:08 | 53.36848 | -2.24424 | 1477 ft | 184 kts | 51° |
| 2026-05-05 20:08 | 53.37517 | -2.22501 | 2091 ft | 202 kts | 78° |
| 2026-05-05 20:08 | 53.37286 | -2.20093 | 2710 ft | 220 kts | 121° |
| 2026-05-05 20:09 | 53.36181 | -2.18178 | 3292 ft | 243 kts | 144° |
| 2026-05-05 20:09 | 53.34611 | -2.16888 | 4013 ft | 261 kts | 167° |
| 2026-05-05 20:09 | 53.32796 | -2.16742 | 4628 ft | 265 kts | 185° |
| 2026-05-05 20:09 | 53.30948 | -2.17085 | 4926 ft | 267 kts | 187° |
| 2026-05-05 20:10 | 53.29104 | -2.17474 | 4953 ft | 267 kts | 187° |
| 2026-05-05 20:10 | 53.27257 | -2.17828 | 4955 ft | 266 kts | 186° |
| 2026-05-05 20:10 | 53.25399 | -2.18152 | 4955 ft | 266 kts | 186° |
| 2026-05-05 20:10 | 53.23563 | -2.18454 | 4956 ft | 266 kts | 186° |
| 2026-05-05 20:11 | 53.21725 | -2.18747 | 4956 ft | 266 kts | 186° |
| 2026-05-05 20:11 | 53.19850 | -2.19044 | 4956 ft | 267 kts | 186° |
| 2026-05-05 20:11 | 53.17954 | -2.19342 | 5220 ft | 276 kts | 186° |
| 2026-05-05 20:11 | 53.16047 | -2.19638 | 6277 ft | 278 kts | 184° |
| 2026-05-05 20:12 | 53.14163 | -2.19505 | 7444 ft | 276 kts | 170° |
| 2026-05-05 20:12 | 53.12331 | -2.18614 | 8451 ft | 280 kts | 159° |
| 2026-05-05 20:12 | 53.10533 | -2.17385 | 9353 ft | 285 kts | 157° |
| 2026-05-05 20:12 | 53.08682 | -2.16064 | 10026 ft | 287 kts | 157° |
| 2026-05-05 20:13 | 53.06801 | -2.14724 | 10664 ft | 301 kts | 157° |
| 2026-05-05 20:13 | 53.04858 | -2.13355 | 11289 ft | 315 kts | 157° |
| 2026-05-05 20:13 | 53.02776 | -2.11901 | 11928 ft | 329 kts | 157° |
| 2026-05-05 20:13 | 53.00618 | -2.10402 | 12562 ft | 342 kts | 157° |
| 2026-05-05 20:14 | 52.98391 | -2.08862 | 13193 ft | 354 kts | 157° |
| 2026-05-05 20:14 | 52.96075 | -2.07264 | 13827 ft | 362 kts | 157° |
| 2026-05-05 20:14 | 52.93740 | -2.05657 | 14452 ft | 367 kts | 158° |
| 2026-05-05 20:14 | 52.91369 | -2.04027 | 14882 ft | 370 kts | 158° |
| 2026-05-05 20:15 | 52.88952 | -2.02369 | 15384 ft | 377 kts | 157° |
| 2026-05-05 20:15 | 52.86517 | -2.00701 | 16274 ft | 378 kts | 157° |
| 2026-05-05 20:15 | 52.84253 | -1.99153 | 17014 ft | 380 kts | 157° |
| 2026-05-05 20:15 | 52.82281 | -1.97805 | 17591 ft | 384 kts | 157° |
| 2026-05-05 20:16 | 52.71852 | -1.90702 | 18998 ft | 392 kts | 158° |
| 2026-05-05 20:17 | 52.69432 | -1.89059 | 19000 ft | 392 kts | 158° |
| 2026-05-05 20:17 | 52.67148 | -1.87511 | 19000 ft | 392 kts | 158° |
| 2026-05-05 20:17 | 52.64646 | -1.85816 | 19001 ft | 392 kts | 158° |
| 2026-05-05 20:17 | 52.62143 | -1.84124 | 19001 ft | 392 kts | 158° |
| 2026-05-05 20:18 | 52.59615 | -1.82416 | 19001 ft | 392 kts | 158° |
| 2026-05-05 20:18 | 52.57105 | -1.80724 | 19001 ft | 392 kts | 158° |
| 2026-05-05 20:18 | 52.54853 | -1.79207 | 19001 ft | 392 kts | 158° |
| 2026-05-05 20:18 | 52.52175 | -1.77405 | 19001 ft | 392 kts | 158° |
| 2026-05-05 20:19 | 52.49656 | -1.75713 | 19001 ft | 392 kts | 158° |
| 2026-05-05 20:19 | 52.47120 | -1.74012 | 19001 ft | 392 kts | 158° |
| 2026-05-05 20:19 | 52.44617 | -1.72336 | 19001 ft | 392 kts | 158° |
| 2026-05-05 20:19 | 52.42103 | -1.70654 | 19001 ft | 392 kts | 158° |
| 2026-05-05 20:20 | 52.39594 | -1.68975 | 19001 ft | 392 kts | 158° |
| 2026-05-05 20:20 | 52.37077 | -1.67102 | 18886 ft | 392 kts | 152° |
| 2026-05-05 20:20 | 52.34744 | -1.64805 | 18634 ft | 390 kts | 145° |
| 2026-05-05 20:20 | 52.32551 | -1.62026 | 18379 ft | 388 kts | 140° |
| 2026-05-05 20:21 | 52.30500 | -1.59141 | 18128 ft | 387 kts | 139° |
| 2026-05-05 20:21 | 52.28436 | -1.56194 | 17873 ft | 386 kts | 139° |
| 2026-05-05 20:21 | 52.26390 | -1.53285 | 17619 ft | 384 kts | 139° |
| 2026-05-05 20:21 | 52.24356 | -1.50413 | 17366 ft | 383 kts | 139° |
| 2026-05-05 20:22 | 52.22319 | -1.47547 | 17113 ft | 381 kts | 139° |
| 2026-05-05 20:22 | 52.20323 | -1.44745 | 16864 ft | 380 kts | 139° |
| 2026-05-05 20:22 | 52.18341 | -1.41969 | 16616 ft | 378 kts | 139° |
| 2026-05-05 20:22 | 52.16374 | -1.39219 | 16369 ft | 377 kts | 139° |
| 2026-05-05 20:23 | 52.14368 | -1.36420 | 16116 ft | 375 kts | 139° |
| 2026-05-05 20:23 | 52.12375 | -1.33642 | 15864 ft | 374 kts | 140° |
| 2026-05-05 20:23 | 52.10355 | -1.30830 | 15608 ft | 373 kts | 140° |
| 2026-05-05 20:23 | 52.08426 | -1.28150 | 15362 ft | 371 kts | 140° |
| 2026-05-05 20:24 | 52.06456 | -1.25414 | 15111 ft | 370 kts | 140° |
| 2026-05-05 20:24 | 52.04518 | -1.22728 | 15006 ft | 369 kts | 140° |
| 2026-05-05 20:24 | 52.02522 | -1.19964 | 15003 ft | 369 kts | 140° |
| 2026-05-05 20:24 | 52.00545 | -1.17232 | 15001 ft | 370 kts | 140° |
| 2026-05-05 20:25 | 51.98572 | -1.14506 | 15001 ft | 370 kts | 140° |
| 2026-05-05 20:25 | 51.96575 | -1.11751 | 15001 ft | 370 kts | 140° |
| 2026-05-05 20:25 | 51.94707 | -1.09175 | 14867 ft | 369 kts | 140° |
| 2026-05-05 20:25 | 51.92734 | -1.06455 | 14613 ft | 367 kts | 140° |
| 2026-05-05 20:26 | 51.90738 | -1.03708 | 14356 ft | 366 kts | 140° |
| 2026-05-05 20:26 | 51.88796 | -1.01039 | 14104 ft | 364 kts | 140° |
| 2026-05-05 20:26 | 51.86880 | -0.98317 | 13840 ft | 360 kts | 135° |
| 2026-05-05 20:26 | 51.85225 | -0.95242 | 13470 ft | 351 kts | 126° |
| 2026-05-05 20:27 | 51.83933 | -0.91879 | 13112 ft | 343 kts | 117° |
| 2026-05-05 20:27 | 51.82861 | -0.88447 | 12765 ft | 336 kts | 116° |
| 2026-05-05 20:27 | 51.81853 | -0.85090 | 12426 ft | 328 kts | 116° |
| 2026-05-05 20:27 | 51.80854 | -0.81766 | 12088 ft | 322 kts | 116° |
| 2026-05-05 20:28 | 51.79883 | -0.78563 | 11761 ft | 315 kts | 116° |
| 2026-05-05 20:28 | 51.78910 | -0.75372 | 11432 ft | 309 kts | 116° |
| 2026-05-05 20:28 | 51.77957 | -0.72267 | 11111 ft | 303 kts | 116° |
| 2026-05-05 20:28 | 51.77031 | -0.69259 | 10797 ft | 298 kts | 116° |
| 2026-05-05 20:29 | 51.76100 | -0.66237 | 10480 ft | 293 kts | 116° |
| 2026-05-05 20:29 | 51.75184 | -0.63270 | 10170 ft | 288 kts | 116° |
| 2026-05-05 20:29 | 51.74389 | -0.60699 | 9913 ft | 283 kts | 116° |
| 2026-05-05 20:29 | 51.73560 | -0.58070 | 9718 ft | 275 kts | 120° |
| 2026-05-05 20:30 | 51.70598 | -0.54749 | 9304 ft | 258 kts | 172° |
| 2026-05-05 20:30 | 51.68846 | -0.54578 | 9173 ft | 249 kts | 179° |
| 2026-05-05 20:30 | 51.67103 | -0.54551 | 9048 ft | 249 kts | 179° |
| 2026-05-05 20:31 | 51.65398 | -0.54515 | 8925 ft | 249 kts | 179° |
| 2026-05-05 20:31 | 51.63648 | -0.54535 | 8792 ft | 248 kts | 188° |
| 2026-05-05 20:31 | 51.62026 | -0.55454 | 8661 ft | 248 kts | 213° |
| 2026-05-05 20:31 | 51.60832 | -0.57463 | 8529 ft | 247 kts | 243° |
| 2026-05-05 20:32 | 51.60299 | -0.60057 | 8380 ft | 242 kts | 259° |
| 2026-05-05 20:32 | 51.60068 | -0.62652 | 8234 ft | 225 kts | 264° |
| 2026-05-05 20:32 | 51.59925 | -0.65139 | 8109 ft | 223 kts | 265° |
| 2026-05-05 20:32 | 51.59785 | -0.67616 | 7984 ft | 223 kts | 264° |
| 2026-05-05 20:33 | 51.59637 | -0.70113 | 7854 ft | 222 kts | 264° |
| 2026-05-05 20:33 | 51.59484 | -0.72636 | 7326 ft | 229 kts | 264° |
| 2026-05-05 20:33 | 51.59329 | -0.75144 | 6718 ft | 234 kts | 263° |
| 2026-05-05 20:33 | 51.58853 | -0.77684 | 6063 ft | 238 kts | 238° |
| 2026-05-05 20:34 | 51.57705 | -0.79543 | 5431 ft | 240 kts | 207° |
| 2026-05-05 20:34 | 51.56086 | -0.80183 | 4800 ft | 240 kts | 179° |
| 2026-05-05 20:34 | 51.54456 | -0.79970 | 4385 ft | 233 kts | 173° |
| 2026-05-05 20:34 | 51.52870 | -0.79669 | 4005 ft | 225 kts | 174° |
| 2026-05-05 20:35 | 51.51314 | -0.79438 | 3673 ft | 216 kts | 173° |
| 2026-05-05 20:35 | 51.49948 | -0.78678 | 3377 ft | 206 kts | 137° |
| 2026-05-05 20:35 | 51.49120 | -0.76879 | 3156 ft | 195 kts | 120° |
| 2026-05-05 20:35 | 51.48478 | -0.74980 | 2924 ft | 184 kts | 115° |
| 2026-05-05 20:36 | 51.48043 | -0.73188 | 2759 ft | 168 kts | 106° |
| 2026-05-05 20:36 | 51.47807 | -0.71402 | 2559 ft | 154 kts | 97° |
| 2026-05-05 20:36 | 51.47722 | -0.69759 | 2547 ft | 145 kts | 91° |
| 2026-05-05 20:36 | 51.47712 | -0.68136 | 2525 ft | 145 kts | 89° |
| 2026-05-05 20:37 | 51.47719 | -0.66517 | 2266 ft | 145 kts | 89° |
| 2026-05-05 20:37 | 51.47726 | -0.64940 | 2075 ft | 140 kts | 89° |
| 2026-05-05 20:37 | 51.47729 | -0.63417 | 1879 ft | 133 kts | 89° |
| 2026-05-05 20:37 | 51.47730 | -0.61948 | 1708 ft | 132 kts | 89° |
| 2026-05-05 20:38 | 51.47731 | -0.60472 | 1538 ft | 131 kts | 89° |
| 2026-05-05 20:38 | 51.47732 | -0.59008 | 1368 ft | 131 kts | 89° |
| 2026-05-05 20:38 | 51.47734 | -0.57549 | 1196 ft | 131 kts | 89° |
| 2026-05-05 20:38 | 51.47736 | -0.56098 | 1022 ft | 130 kts | 89° |
| 2026-05-05 20:39 | 51.47738 | -0.54658 | 848 ft | 130 kts | 89° |
| 2026-05-05 20:39 | 51.47741 | -0.53212 | 674 ft | 130 kts | 89° |
| 2026-05-05 20:39 | 51.47744 | -0.51845 | 511 ft | 129 kts | 89° |
| 2026-05-05 20:39 | 51.47748 | -0.50406 | 339 ft | 129 kts | 89° |
| 2026-05-05 20:40 | 51.47751 | -0.48988 | 182 ft | 128 kts | 89° |
| 2026-05-05 20:40 | 51.47754 | -0.47575 | 87 ft | 118 kts | 89° |
| 2026-05-05 20:40 | 51.47757 | -0.46505 | 83 ft | 71 kts | 89° |
| 2026-05-05 20:40 | 51.47757 | -0.45975 | 81 ft | 34 kts | 90° |
| 2026-05-05 20:41 | 51.47757 | -0.45561 | 83 ft | 36 kts | 104° |
| 2026-05-05 20:41 | 51.47579 | -0.45469 | 86 ft | 21 kts | 179° |
| 2026-05-05 20:41 | 51.47510 | -0.45359 | 90 ft | 14 kts | 95° |
| 2026-05-05 20:41 | 51.47508 | -0.45203 | 91 ft | 14 kts | 89° |
| 2026-05-05 20:42 | 51.47509 | -0.45051 | 93 ft | 12 kts | 89° |
| 2026-05-05 20:42 | 51.47496 | -0.44975 | 94 ft | 4 kts | 163° |
| 2026-05-05 20:42 | 51.47468 | -0.44975 | 94 ft | 6 kts | 179° |
| 2026-05-05 20:42 | 51.47425 | -0.44975 | 95 ft | 5 kts | 179° |
| 2026-05-05 20:43 | 51.47410 | -0.44974 | 95 ft | 0 kts | 179° |